Time;durP1;ratioP1;P1;durP2;ratioP2;P2;SDS_P1;SDS_P2;PMS_P1;PMS_P2;Temp;Humidity;BMP_temperature;BMP_pressure;BME280_temperature;BME280_humidity;BME280_pressure;Samples;Min_cycle;Max_cycle;Signal;HPM_P1;HPM_P2
2021/03/31 00:01:11;;;;;;;9.67;6.90;;;9.80;99.90;;;;;;5072592;28;20153;-65
2021/03/31 00:03:37;;;;;;;10.73;7.30;;;9.80;99.90;;;;;;5072471;28;20605;-65
2021/03/31 00:06:02;;;;;;;15.00;9.07;;;9.80;99.90;;;;;;5072663;28;20157;-65
2021/03/31 00:08:28;;;;;;;8.20;6.37;;;9.80;99.90;;;;;;5071952;28;20205;-65
2021/03/31 00:10:54;;;;;;;8.97;8.03;;;9.70;99.90;;;;;;5072267;28;20183;-65
2021/03/31 00:13:22;;;;;;;9.87;7.20;;;9.70;99.90;;;;;;5073249;28;20157;-65
2021/03/31 00:15:48;;;;;;;8.37;6.40;;;9.70;99.90;;;;;;5072555;28;20160;-65
2021/03/31 00:18:16;;;;;;;10.27;6.80;;;9.60;99.90;;;;;;5071049;28;20414;-65
2021/03/31 00:20:42;;;;;;;10.10;7.43;;;9.60;99.90;;;;;;5071331;28;20390;-65
2021/03/31 00:23:09;;;;;;;11.80;7.30;;;9.60;99.90;;;;;;5072583;28;20875;-65
2021/03/31 00:25:35;;;;;;;10.67;7.63;;;9.50;99.90;;;;;;5074826;28;20463;-65
2021/03/31 00:28:01;;;;;;;11.03;7.73;;;9.50;99.90;;;;;;5076137;28;20410;-65
2021/03/31 00:30:27;;;;;;;8.60;6.83;;;9.50;99.90;;;;;;5074706;28;20156;-65
2021/03/31 00:32:53;;;;;;;11.17;7.90;;;9.50;99.90;;;;;;5075931;28;20394;-65
2021/03/31 00:35:18;;;;;;;11.00;8.67;;;9.40;99.90;;;;;;5074606;28;20485;-65
2021/03/31 00:37:44;;;;;;;11.80;8.13;;;9.40;99.90;;;;;;5075615;28;20208;-65
2021/03/31 00:40:13;;;;;;;12.10;7.63;;;9.40;99.90;;;;;;5075931;28;20183;-65
2021/03/31 00:42:39;;;;;;;11.73;7.57;;;9.40;99.90;;;;;;5074518;28;20206;-65
2021/03/31 00:45:07;;;;;;;9.37;7.40;;;9.30;99.90;;;;;;5074474;28;20405;-65
2021/03/31 00:47:32;;;;;;;10.20;7.43;;;9.30;99.90;;;;;;5074326;28;20952;-66
2021/03/31 00:49:58;;;;;;;8.70;7.80;;;9.30;99.90;;;;;;5075558;28;20394;-66
2021/03/31 00:52:24;;;;;;;8.60;6.90;;;9.20;99.90;;;;;;5075455;28;20255;-66
2021/03/31 00:54:50;;;;;;;10.40;7.90;;;9.20;99.90;;;;;;5075903;28;20164;-66
2021/03/31 00:57:16;;;;;;;9.10;6.83;;;9.20;99.90;;;;;;5075295;28;20862;-65
2021/03/31 00:59:42;;;;;;;10.27;7.17;;;9.20;99.90;;;;;;5075680;28;20382;-66
2021/03/31 01:02:07;;;;;;;9.07;7.00;;;9.20;99.90;;;;;;5074042;28;20413;-66
2021/03/31 01:04:33;;;;;;;10.47;7.00;;;9.10;99.90;;;;;;5075501;28;20490;-66
2021/03/31 01:06:58;;;;;;;10.53;8.00;;;9.20;99.90;;;;;;5075319;28;20160;-66
2021/03/31 01:09:25;;;;;;;11.80;6.80;;;9.10;99.90;;;;;;5075547;28;20267;-65
2021/03/31 01:17:25;;;;;;;11.20;8.07;;;9.10;99.90;;;;;;5128381;27;20599;-66
2021/03/31 01:22:58;;;;;;;10.20;7.20;;;9.00;99.90;;;;;;5110940;27;20506;-65
2021/03/31 01:33:43;;;;;;;9.43;6.90;;;9.00;99.90;;;;;;5131376;27;20563;-66
2021/03/31 01:36:16;;;;;;;9.37;6.50;;;8.90;99.90;;;;;;5111877;28;20484;-66
2021/03/31 01:38:46;;;;;;;12.33;7.97;;;8.90;99.90;;;;;;5109815;28;20791;-66
2021/03/31 01:41:15;;;;;;;11.80;7.10;;;8.90;99.90;;;;;;5110548;28;20395;-66
2021/03/31 01:43:41;;;;;;;8.00;7.03;;;8.90;99.90;;;;;;5110604;28;20403;-66
2021/03/31 01:46:08;;;;;;;8.00;7.23;;;8.90;99.90;;;;;;5110388;28;20432;-66
2021/03/31 01:48:34;;;;;;;10.37;8.10;;;8.80;99.90;;;;;;5110634;28;20386;-66
2021/03/31 01:51:05;;;;;;;9.27;7.30;;;8.80;99.90;;;;;;5110657;28;20397;-66
2021/03/31 01:53:32;;;;;;;8.57;6.97;;;8.80;99.90;;;;;;5130867;28;20392;-66
2021/03/31 01:55:58;;;;;;;9.37;6.37;;;8.80;99.90;;;;;;5112752;28;20393;-66
2021/03/31 01:58:26;;;;;;;11.80;7.13;;;8.80;99.90;;;;;;5131136;27;20388;-66
2021/03/31 02:00:52;;;;;;;7.90;6.40;;;8.80;99.90;;;;;;5131130;28;20500;-66
2021/03/31 02:03:20;;;;;;;9.07;6.97;;;8.80;99.90;;;;;;5130727;28;20440;-66
2021/03/31 02:05:47;;;;;;;8.43;6.30;;;8.80;99.90;;;;;;5130769;28;20802;-66
2021/03/31 02:08:13;;;;;;;7.87;7.10;;;8.70;99.90;;;;;;5129708;28;20425;-66
2021/03/31 02:10:41;;;;;;;7.53;6.70;;;8.70;99.90;;;;;;5130477;28;20750;-66
2021/03/31 02:13:08;;;;;;;12.50;7.60;;;8.70;99.90;;;;;;5130472;27;20437;-66
2021/03/31 02:15:35;;;;;;;15.90;7.67;;;8.70;99.90;;;;;;5129233;28;20393;-66
2021/03/31 02:18:06;;;;;;;10.77;6.37;;;8.70;99.90;;;;;;5130472;28;20388;-66
2021/03/31 02:20:32;;;;;;;10.10;6.60;;;8.70;99.90;;;;;;5131277;28;20390;-65
2021/03/31 02:23:00;;;;;;;8.07;7.30;;;8.70;99.90;;;;;;5130472;28;20396;-65
2021/03/31 02:25:26;;;;;;;8.67;6.90;;;8.60;99.90;;;;;;5129522;27;20416;-65
2021/03/31 02:27:52;;;;;;;11.60;7.10;;;8.60;99.90;;;;;;5130726;28;20759;-66
2021/03/31 02:30:22;;;;;;;8.00;6.60;;;8.60;99.90;;;;;;5130408;27;20521;-66
2021/03/31 02:32:51;;;;;;;8.67;6.60;;;8.60;99.90;;;;;;5130108;28;20242;-66
2021/03/31 02:35:20;;;;;;;8.63;6.53;;;8.60;99.90;;;;;;5130201;27;20419;-66
2021/03/31 02:37:47;;;;;;;10.20;6.93;;;8.60;99.90;;;;;;5130081;28;20396;-66
2021/03/31 02:40:14;;;;;;;9.57;7.23;;;8.60;99.90;;;;;;5130035;27;20400;-66
2021/03/31 02:42:41;;;;;;;8.77;6.80;;;8.60;99.90;;;;;;5126563;28;20489;-66
2021/03/31 02:45:09;;;;;;;8.30;6.87;;;8.60;99.90;;;;;;5116359;28;20475;-66
2021/03/31 02:47:39;;;;;;;9.00;7.57;;;8.60;99.90;;;;;;5116167;28;20398;-66
2021/03/31 02:50:06;;;;;;;10.73;6.63;;;8.50;99.90;;;;;;5116296;28;20396;-66
2021/03/31 02:52:33;;;;;;;12.43;7.23;;;8.50;99.90;;;;;;5102114;28;20552;-66
2021/03/31 02:55:01;;;;;;;8.40;6.37;;;8.50;99.90;;;;;;5095679;28;20882;-66
2021/03/31 02:57:27;;;;;;;8.57;7.03;;;8.50;99.90;;;;;;5095773;28;20396;-66
2021/03/31 02:59:54;;;;;;;8.60;7.20;;;8.50;99.90;;;;;;5096050;28;20406;-66
2021/03/31 03:02:20;;;;;;;7.97;6.97;;;8.50;99.90;;;;;;5095343;28;20394;-66
2021/03/31 03:04:48;;;;;;;7.97;7.00;;;8.50;99.90;;;;;;5094325;28;20386;-66
2021/03/31 03:07:15;;;;;;;10.03;7.27;;;8.50;99.90;;;;;;5095405;28;20818;-66
2021/03/31 03:09:42;;;;;;;8.87;6.30;;;8.40;99.90;;;;;;5095294;28;20429;-66
2021/03/31 03:12:11;;;;;;;8.50;6.87;;;8.40;99.90;;;;;;5095306;28;20498;-66
2021/03/31 03:14:38;;;;;;;7.73;6.00;;;8.40;99.90;;;;;;5095539;28;20425;-66
2021/03/31 03:17:04;;;;;;;7.73;6.30;;;8.40;99.90;;;;;;5095727;28;20491;-66
2021/03/31 03:19:29;;;;;;;9.00;6.70;;;8.40;99.90;;;;;;5095272;28;20474;-66
2021/03/31 03:21:55;;;;;;;10.80;7.33;;;8.40;99.90;;;;;;5094122;28;20491;-66
2021/03/31 03:24:23;;;;;;;9.90;6.80;;;8.40;99.90;;;;;;5095294;28;20166;-66
2021/03/31 03:26:49;;;;;;;7.03;6.17;;;8.40;99.90;;;;;;5095063;28;20886;-66
2021/03/31 03:29:18;;;;;;;6.90;6.20;;;8.40;99.90;;;;;;5095019;28;20427;-66
2021/03/31 03:31:44;;;;;;;8.30;6.90;;;8.30;99.90;;;;;;5094926;28;20199;-66
2021/03/31 03:34:10;;;;;;;12.13;7.57;;;8.40;99.90;;;;;;5095642;28;20928;-66
2021/03/31 03:36:40;;;;;;;7.53;6.30;;;8.30;99.90;;;;;;5094855;28;20393;-66
2021/03/31 03:39:05;;;;;;;7.67;6.87;;;8.30;99.90;;;;;;5093854;28;20390;-66
2021/03/31 03:41:31;;;;;;;8.23;6.50;;;8.30;99.90;;;;;;5094733;28;20457;-66
2021/03/31 03:43:57;;;;;;;8.10;7.10;;;8.30;99.90;;;;;;5094745;28;20624;-66
2021/03/31 03:46:28;;;;;;;9.30;6.40;;;8.30;99.90;;;;;;5094607;28;20196;-66
2021/03/31 03:48:56;;;;;;;8.43;6.90;;;8.30;99.90;;;;;;5094631;28;20159;-66
2021/03/31 03:51:23;;;;;;;9.50;6.43;;;8.30;99.90;;;;;;5095263;28;20954;-66
2021/03/31 03:53:48;;;;;;;8.83;6.57;;;8.30;99.90;;;;;;5094470;28;20393;-66
2021/03/31 03:56:14;;;;;;;7.60;6.20;;;8.30;99.90;;;;;;5093524;28;20419;-66
2021/03/31 03:58:40;;;;;;;8.00;6.47;;;8.30;99.90;;;;;;5094466;28;20155;-66
2021/03/31 04:01:05;;;;;;;13.20;8.10;;;8.30;99.90;;;;;;5094429;28;20163;-66
2021/03/31 04:03:32;;;;;;;10.07;7.40;;;8.30;99.90;;;;;;5094354;28;20151;-66
2021/03/31 04:05:57;;;;;;;8.50;6.90;;;8.30;99.90;;;;;;5094359;28;20206;-66
2021/03/31 04:08:23;;;;;;;6.60;6.00;;;8.30;99.90;;;;;;5106606;28;20432;-66
2021/03/31 04:10:52;;;;;;;13.30;7.23;;;8.30;99.90;;;;;;5114532;28;20154;-66
2021/03/31 04:13:19;;;;;;;10.17;6.90;;;8.30;99.90;;;;;;5113207;28;20186;-66
2021/03/31 04:15:47;;;;;;;12.60;6.90;;;8.30;99.90;;;;;;5114784;28;20392;-66
2021/03/31 04:18:15;;;;;;;8.30;7.10;;;8.30;99.90;;;;;;5113499;28;20405;-66
2021/03/31 04:20:41;;;;;;;9.27;5.83;;;8.30;99.90;;;;;;5114379;28;20761;-66
2021/03/31 04:23:07;;;;;;;8.27;6.27;;;8.30;99.90;;;;;;5114558;28;20813;-66
2021/03/31 04:25:33;;;;;;;7.60;6.30;;;8.30;99.90;;;;;;5113442;28;20419;-66
2021/03/31 04:28:03;;;;;;;8.90;7.03;;;8.30;99.90;;;;;;5114259;28;20877;-66
2021/03/31 04:30:29;;;;;;;10.90;6.80;;;8.30;99.90;;;;;;5113148;28;20155;-66
2021/03/31 04:32:55;;;;;;;10.93;7.73;;;8.30;99.90;;;;;;5112820;28;20460;-66
2021/03/31 04:35:22;;;;;;;9.50;7.80;;;8.30;99.90;;;;;;5114190;28;20167;-66
2021/03/31 04:37:49;;;;;;;10.00;7.53;;;8.40;99.90;;;;;;5114086;28;20422;-66
2021/03/31 04:40:16;;;;;;;10.60;7.83;;;8.30;99.90;;;;;;5113917;28;20476;-66
2021/03/31 04:42:42;;;;;;;11.23;7.40;;;8.30;99.90;;;;;;5111777;28;20412;-66
2021/03/31 04:45:10;;;;;;;8.47;7.30;;;8.30;99.90;;;;;;5114469;28;20469;-66
2021/03/31 04:47:37;;;;;;;12.97;7.30;;;8.30;99.90;;;;;;5112717;28;20476;-66
2021/03/31 04:50:05;;;;;;;9.03;7.17;;;8.30;99.90;;;;;;5113838;28;20432;-66
2021/03/31 04:52:31;;;;;;;8.70;6.70;;;8.30;99.90;;;;;;5099710;28;20543;-66
2021/03/31 04:54:56;;;;;;;9.83;7.70;;;8.30;99.90;;;;;;5093365;28;20805;-66
2021/03/31 04:57:22;;;;;;;8.53;7.10;;;8.30;99.90;;;;;;5093392;28;20523;-66
2021/03/31 04:59:48;;;;;;;9.80;7.90;;;8.30;99.90;;;;;;5094013;28;20584;-66
2021/03/31 05:02:13;;;;;;;8.13;6.70;;;8.20;99.90;;;;;;5093378;28;20159;-66
2021/03/31 05:04:39;;;;;;;11.50;7.70;;;8.30;99.90;;;;;;5093353;28;20163;-66
2021/03/31 05:07:05;;;;;;;7.17;6.20;;;8.20;99.90;;;;;;5093136;28;20159;-66
2021/03/31 05:09:30;;;;;;;10.13;6.80;;;8.20;99.90;;;;;;5093286;28;20157;-66
2021/03/31 05:11:57;;;;;;;9.70;7.13;;;8.20;99.90;;;;;;5093627;28;20178;-66
2021/03/31 05:14:23;;;;;;;8.30;7.00;;;8.20;99.90;;;;;;5093324;28;20604;-66
2021/03/31 05:16:49;;;;;;;11.60;6.63;;;8.20;99.90;;;;;;5093859;28;20517;-66
2021/03/31 05:19:14;;;;;;;7.77;6.87;;;8.20;99.90;;;;;;5093306;28;20158;-66
2021/03/31 05:21:40;;;;;;;11.50;8.07;;;8.10;99.90;;;;;;5093237;28;20233;-66
2021/03/31 05:24:06;;;;;;;11.73;7.80;;;8.20;99.90;;;;;;5093152;28;20151;-66
2021/03/31 05:26:32;;;;;;;12.10;7.97;;;8.20;99.90;;;;;;5093688;28;20237;-66
2021/03/31 05:28:58;;;;;;;10.37;7.60;;;8.20;99.90;;;;;;5093192;28;20969;-66
2021/03/31 05:31:24;;;;;;;13.03;7.30;;;8.10;99.90;;;;;;5091592;28;20209;-66
2021/03/31 05:33:50;;;;;;;9.13;7.73;;;8.10;99.90;;;;;;5093602;28;20580;-66
2021/03/31 05:36:16;;;;;;;12.10;7.53;;;8.10;99.90;;;;;;5093035;28;20396;-66
2021/03/31 05:38:41;;;;;;;10.80;7.20;;;8.20;99.90;;;;;;5093039;28;20159;-66
2021/03/31 05:41:07;;;;;;;8.57;6.70;;;8.20;99.90;;;;;;5093598;28;20159;-66
2021/03/31 05:43:34;;;;;;;12.20;7.23;;;8.20;99.90;;;;;;5092946;28;20496;-66
2021/03/31 05:46:00;;;;;;;8.43;7.27;;;8.20;99.90;;;;;;5093022;28;20191;-66
2021/03/31 05:48:26;;;;;;;11.70;7.47;;;8.30;99.90;;;;;;5092925;28;20402;-66
2021/03/31 05:50:51;;;;;;;10.60;7.43;;;8.30;99.90;;;;;;5109253;28;20400;-66
2021/03/31 05:53:17;;;;;;;23.63;7.83;;;8.30;99.90;;;;;;5092849;28;20572;-66
2021/03/31 05:55:42;;;;;;;17.70;8.30;;;8.30;99.90;;;;;;5093553;28;20160;-66
2021/03/31 05:58:08;;;;;;;23.77;7.53;;;8.40;99.90;;;;;;5092776;28;20239;-66
2021/03/31 06:00:35;;;;;;;11.87;6.80;;;8.40;99.90;;;;;;5092857;28;20515;-66
2021/03/31 06:03:04;;;;;;;16.90;7.53;;;8.50;99.90;;;;;;5092789;28;20395;-66
2021/03/31 06:05:32;;;;;;;14.80;7.07;;;8.50;99.90;;;;;;5092850;28;20470;-66
2021/03/31 06:07:58;;;;;;;12.97;7.60;;;8.60;99.90;;;;;;5093513;28;20901;-66
2021/03/31 06:10:26;;;;;;;15.40;7.70;;;8.60;99.90;;;;;;5092866;28;20435;-66
2021/03/31 06:18:18;;;;;;;19.87;9.70;;;8.70;99.90;;;;;;5131498;27;20535;-65
2021/03/31 06:26:32;;;;;;;22.13;8.50;;;9.10;99.90;;;;;;5090519;27;20505;-65
2021/03/31 06:31:36;;;;;;;23.23;8.97;;;9.20;99.90;;;;;;5131414;27;20566;-65
2021/03/31 06:34:04;;;;;;;26.90;9.97;;;9.40;99.90;;;;;;5131708;28;20402;-65
2021/03/31 06:36:43;;;;;;;21.33;9.10;;;9.50;99.90;;;;;;5131745;28;20387;-65
2021/03/31 06:42:10;;;;;;;19.60;10.27;;;9.60;99.90;;;;;;5073071;28;20582;-65
2021/03/31 06:44:58;;;;;;;14.40;9.00;;;9.80;99.90;;;;;;5070341;28;20404;-65
2021/03/31 06:50:09;;;;;;;18.63;8.47;;;10.00;99.90;;;;;;5131531;27;20557;-67
2021/03/31 06:52:50;;;;;;;18.97;9.30;;;10.00;99.90;;;;;;5131480;28;20406;-67
2021/03/31 06:55:15;;;;;;;14.07;8.50;;;10.10;99.90;;;;;;5131301;28;20382;-65
2021/03/31 06:57:41;;;;;;;18.40;8.20;;;10.20;99.90;;;;;;5130403;28;20460;-65
2021/03/31 07:02:45;;;;;;;15.97;8.90;;;10.30;99.90;;;;;;5131509;27;20561;-65
2021/03/31 07:05:11;;;;;;;12.60;8.90;;;10.50;99.90;;;;;;5131565;28;20872;-65
2021/03/31 07:07:41;;;;;;;17.90;8.80;;;10.60;99.90;;;;;;5131626;28;20375;-65
2021/03/31 07:10:13;;;;;;;13.60;8.70;;;10.70;99.00;;;;;;5130139;28;20793;-65
2021/03/31 07:12:48;;;;;;;14.77;8.70;;;10.80;98.90;;;;;;5130111;28;20390;-65
2021/03/31 07:15:17;;;;;;;16.30;9.30;;;10.90;98.70;;;;;;5120217;28;20413;-65
2021/03/31 07:17:47;;;;;;;15.93;9.20;;;11.00;98.10;;;;;;5110616;28;20736;-65
2021/03/31 07:20:13;;;;;;;14.33;8.97;;;11.10;97.60;;;;;;5111355;28;20434;-65
2021/03/31 07:22:39;;;;;;;19.37;9.23;;;11.20;97.70;;;;;;5110532;28;20440;-65
2021/03/31 07:25:06;;;;;;;15.13;8.57;;;11.30;97.40;;;;;;5110717;28;20242;-65
2021/03/31 07:27:34;;;;;;;13.87;8.80;;;11.40;97.60;;;;;;5110637;28;20388;-65
2021/03/31 07:30:16;;;;;;;11.50;8.57;;;11.40;97.50;;;;;;5110421;28;20437;-65
2021/03/31 07:35:27;;;;;;;16.93;10.30;;;11.60;98.40;;;;;;5131739;27;20507;-65
2021/03/31 07:37:55;;;;;;;11.90;9.20;;;11.70;97.10;;;;;;5131584;27;20387;-65
2021/03/31 07:40:21;;;;;;;19.90;10.47;;;11.80;96.90;;;;;;5131682;28;20372;-65
2021/03/31 07:43:08;;;;;;;16.70;10.33;;;11.80;97.30;;;;;;5131313;28;20432;-65
2021/03/31 07:45:39;;;;;;;14.00;8.80;;;11.90;96.10;;;;;;5129830;28;20185;-64
2021/03/31 07:48:06;;;;;;;16.50;9.33;;;12.10;95.30;;;;;;5130057;28;20383;-65
2021/03/31 07:50:33;;;;;;;16.57;10.40;;;12.30;95.70;;;;;;5110614;28;20480;-65
2021/03/31 07:53:00;;;;;;;23.60;11.30;;;12.40;94.30;;;;;;5110197;28;20955;-65
2021/03/31 07:55:43;;;;;;;16.80;9.60;;;12.50;94.50;;;;;;5110770;28;20423;-66
2021/03/31 08:01:01;;;;;;;18.83;10.53;;;12.70;93.60;;;;;;5131282;27;20864;-65
2021/03/31 08:03:31;;;;;;;16.47;10.03;;;12.90;93.30;;;;;;5130910;28;20431;-65
2021/03/31 08:06:21;;;;;;;16.27;10.20;;;13.10;93.80;;;;;;5122433;27;20402;-65
2021/03/31 08:14:34;;;;;;;17.20;9.80;;;13.10;94.70;;;;;;5131453;27;20504;-66
2021/03/31 08:17:02;;;;;;;15.47;9.80;;;13.30;97.30;;;;;;5131729;28;20379;-66
2021/03/31 08:19:31;;;;;;;15.60;8.93;;;13.40;98.00;;;;;;5129843;28;20387;-66
2021/03/31 08:22:00;;;;;;;16.80;10.33;;;13.50;98.50;;;;;;5130966;28;20376;-66
2021/03/31 08:24:45;;;;;;;14.30;9.50;;;13.60;99.50;;;;;;5110812;27;20381;-66
2021/03/31 08:27:12;;;;;;;14.13;9.00;;;13.70;99.60;;;;;;5109824;28;20396;-66
2021/03/31 08:32:15;;;;;;;12.57;9.10;;;13.80;99.90;;;;;;5131659;27;20519;-67
2021/03/31 08:34:42;;;;;;;17.00;9.60;;;14.20;99.90;;;;;;5131554;28;20523;-64
2021/03/31 08:37:23;;;;;;;13.00;8.47;;;14.40;99.90;;;;;;5131130;28;20416;-67
2021/03/31 08:39:48;;;;;;;13.20;8.50;;;14.80;99.80;;;;;;5123931;28;20964;-67
2021/03/31 08:42:14;;;;;;;19.70;10.13;;;15.20;98.90;;;;;;5110836;28;20404;-67
2021/03/31 08:44:44;;;;;;;16.87;9.63;;;15.50;98.40;;;;;;5110533;28;20158;-67
2021/03/31 08:47:24;;;;;;;12.40;8.40;;;15.70;98.00;;;;;;5110729;28;20186;-65
2021/03/31 08:50:00;;;;;;;13.43;9.73;;;15.70;97.90;;;;;;5109112;28;20441;-66
2021/03/31 08:52:31;;;;;;;14.10;7.47;;;15.70;97.80;;;;;;5109415;28;20415;-65
2021/03/31 08:54:57;;;;;;;9.27;6.80;;;15.90;97.60;;;;;;5110534;28;20391;-65
2021/03/31 08:57:28;;;;;;;12.93;8.00;;;16.20;96.90;;;;;;5122775;28;20404;-65
2021/03/31 08:59:58;;;;;;;10.93;6.90;;;16.50;96.00;;;;;;5129798;28;20177;-65
2021/03/31 09:02:26;;;;;;;14.10;7.10;;;17.00;94.40;;;;;;5130776;27;20789;-65
2021/03/31 09:04:52;;;;;;;9.47;5.97;;;17.40;92.80;;;;;;5129424;28;20423;-65
2021/03/31 09:07:18;;;;;;;7.60;5.60;;;17.90;91.40;;;;;;5129313;28;20403;-65
2021/03/31 09:09:46;;;;;;;7.03;5.33;;;18.40;88.80;;;;;;5130399;28;20396;-65
2021/03/31 09:12:14;;;;;;;9.00;5.90;;;18.80;82.50;;;;;;5130358;27;20629;-65
2021/03/31 09:14:42;;;;;;;5.83;5.23;;;19.30;77.50;;;;;;5111915;28;20406;-66
2021/03/31 09:17:11;;;;;;;13.63;6.07;;;19.70;73.60;;;;;;5130491;28;20471;-66
2021/03/31 09:19:39;;;;;;;5.57;4.80;;;20.00;70.40;;;;;;5129317;28;20456;-66
2021/03/31 09:24:45;;;;;;;6.63;4.80;;;20.40;68.30;;;;;;5110672;27;20532;-65
2021/03/31 09:27:13;;;;;;;9.20;4.37;;;21.10;60.20;;;;;;5111045;28;20383;-65
2021/03/31 09:29:43;;;;;;;5.43;4.23;;;21.40;58.50;;;;;;5110720;28;20385;-65
2021/03/31 09:32:13;;;;;;;5.53;4.10;;;21.60;58.10;;;;;;5091706;28;20510;-65
2021/03/31 09:34:38;;;;;;;6.67;4.30;;;21.80;57.40;;;;;;5090453;28;20385;-65
2021/03/31 09:37:07;;;;;;;9.33;4.10;;;21.90;56.30;;;;;;5090347;28;20386;-65
2021/03/31 09:39:54;;;;;;;9.10;4.10;;;22.00;56.30;;;;;;5090364;28;20159;-66
2021/03/31 09:42:24;;;;;;;10.37;5.20;;;22.10;52.40;;;;;;5072315;28;20802;-65
2021/03/31 09:44:52;;;;;;;6.57;3.70;;;22.50;44.80;;;;;;5071845;28;20488;-65
2021/03/31 09:47:20;;;;;;;6.90;3.63;;;22.90;47.10;;;;;;5087064;28;20539;-65
2021/03/31 09:49:48;;;;;;;7.97;4.07;;;23.00;47.80;;;;;;5089960;28;20404;-65
2021/03/31 09:52:15;;;;;;;4.73;4.07;;;22.90;48.50;;;;;;5089744;28;20408;-65
2021/03/31 09:54:46;;;;;;;4.33;3.50;;;22.60;49.20;;;;;;5089878;28;20901;-65
2021/03/31 09:57:13;;;;;;;6.93;3.20;;;22.00;49.50;;;;;;5089873;28;20389;-65
2021/03/31 09:59:40;;;;;;;6.93;4.10;;;21.50;50.20;;;;;;5088716;28;20401;-65
2021/03/31 10:02:09;;;;;;;5.43;3.27;;;21.00;51.10;;;;;;5089744;28;20393;-65
2021/03/31 10:04:38;;;;;;;5.60;3.83;;;20.60;51.50;;;;;;5093542;28;20460;-65
2021/03/31 10:09:44;;;;;;;13.90;6.10;;;20.20;51.10;;;;;;5131562;27;20573;-65
2021/03/31 10:12:18;;;;;;;8.30;5.90;;;19.60;53.00;;;;;;5130092;28;20379;-65
2021/03/31 10:14:48;;;;;;;5.60;4.27;;;19.30;54.70;;;;;;5131149;28;20491;-65
2021/03/31 10:17:18;;;;;;;5.57;3.67;;;19.10;52.80;;;;;;5131109;28;20382;-65
2021/03/31 10:19:44;;;;;;;5.83;4.20;;;19.20;46.50;;;;;;5131030;28;20386;-64
2021/03/31 10:22:10;;;;;;;5.07;3.27;;;19.50;44.70;;;;;;5120712;28;20809;-67
2021/03/31 10:24:40;;;;;;;4.07;3.67;;;19.80;45.00;;;;;;5109449;28;20158;-67
2021/03/31 10:27:06;;;;;;;4.10;3.40;;;19.90;46.40;;;;;;5109194;28;20911;-67
2021/03/31 10:29:32;;;;;;;4.33;2.67;;;19.80;45.50;;;;;;5110587;28;21009;-65
2021/03/31 10:32:00;;;;;;;3.60;2.73;;;19.90;42.90;;;;;;5110664;28;20475;-64
2021/03/31 10:34:37;;;;;;;3.30;2.50;;;20.00;42.90;;;;;;5110536;28;20169;-67
2021/03/31 10:50:46;;;;;;;3.70;3.00;;;19.00;45.90;;;;;;5130415;28;20530;-65
2021/03/31 10:53:12;;;;;;;6.50;3.00;;;18.90;46.40;;;;;;5111437;28;20761;-65
2021/03/31 10:55:41;;;;;;;3.57;3.13;;;18.80;48.50;;;;;;5116553;28;20402;-65
2021/03/31 10:58:07;;;;;;;4.30;2.77;;;18.70;47.20;;;;;;5130005;28;20686;-65
2021/03/31 11:00:35;;;;;;;4.60;3.13;;;18.80;46.50;;;;;;5129767;28;20403;-65
2021/03/31 11:03:00;;;;;;;4.00;2.77;;;19.10;44.90;;;;;;5130977;28;20388;-65
2021/03/31 11:05:26;;;;;;;4.70;2.90;;;19.30;46.30;;;;;;5130908;27;20391;-65
2021/03/31 11:07:51;;;;;;;4.30;2.40;;;19.30;49.70;;;;;;5130997;27;20181;-65
2021/03/31 11:10:17;;;;;;;7.70;4.13;;;19.10;50.00;;;;;;5129804;28;20290;-65
2021/03/31 11:12:43;;;;;;;5.73;3.37;;;18.90;47.80;;;;;;5129869;28;20265;-65
2021/03/31 11:15:11;;;;;;;3.87;3.10;;;18.90;50.80;;;;;;5130895;28;20200;-65
2021/03/31 11:17:58;;;;;;;3.87;3.43;;;18.90;48.10;;;;;;5130908;28;20395;-65
2021/03/31 11:20:37;;;;;;;3.40;2.90;;;19.20;46.10;;;;;;5129753;28;20426;-65
2021/03/31 11:28:26;;;;;;;6.53;3.00;;;18.90;51.00;;;;;;5131426;27;20549;-65
2021/03/31 11:30:52;;;;;;;3.80;3.07;;;18.90;47.80;;;;;;5114602;28;20412;-67
2021/03/31 11:33:21;;;;;;;3.43;2.33;;;18.80;51.30;;;;;;5110585;28;20233;-65
2021/03/31 11:35:47;;;;;;;9.10;3.63;;;18.60;50.80;;;;;;5110719;28;20377;-66
2021/03/31 11:38:13;;;;;;;4.97;2.47;;;18.80;45.20;;;;;;5110649;28;20387;-65
2021/03/31 11:40:38;;;;;;;4.23;2.80;;;18.90;49.40;;;;;;5110510;28;20388;-65
2021/03/31 11:43:06;;;;;;;4.43;2.83;;;18.70;50.60;;;;;;5110530;28;20162;-65
2021/03/31 11:45:33;;;;;;;6.20;3.17;;;18.60;52.10;;;;;;5110281;28;20264;-67
2021/03/31 11:47:58;;;;;;;3.70;2.50;;;18.40;53.10;;;;;;5109661;28;20448;-65
2021/03/31 11:50:25;;;;;;;6.37;3.13;;;18.20;54.40;;;;;;5110525;28;20521;-65
2021/03/31 11:52:52;;;;;;;7.30;3.40;;;18.10;54.70;;;;;;5110454;28;20534;-65
2021/03/31 11:55:18;;;;;;;5.53;3.80;;;18.00;53.60;;;;;;5110390;28;20436;-65
2021/03/31 11:57:43;;;;;;;8.17;3.43;;;17.90;54.00;;;;;;5110115;28;20396;-65
2021/03/31 12:00:09;;;;;;;5.40;3.30;;;17.80;54.40;;;;;;5110175;28;20162;-65
2021/03/31 12:02:35;;;;;;;4.73;3.40;;;17.70;55.40;;;;;;5109996;28;20159;-65
2021/03/31 12:05:00;;;;;;;4.27;2.23;;;17.60;56.30;;;;;;5127830;28;20781;-65
2021/03/31 12:07:27;;;;;;;5.93;2.90;;;17.50;56.80;;;;;;5130399;27;20177;-65
2021/03/31 12:09:53;;;;;;;4.23;2.30;;;17.50;53.50;;;;;;5130768;28;20185;-65
2021/03/31 12:12:18;;;;;;;3.20;2.10;;;17.50;53.20;;;;;;5130509;28;20426;-65
2021/03/31 12:14:44;;;;;;;3.20;2.90;;;17.60;56.20;;;;;;5130311;28;20229;-65
2021/03/31 12:17:09;;;;;;;7.80;3.20;;;17.50;56.70;;;;;;5130573;28;20178;-65
2021/03/31 12:19:35;;;;;;;5.17;3.33;;;17.60;49.90;;;;;;5130677;28;20161;-65
2021/03/31 12:22:01;;;;;;;7.80;3.30;;;17.80;49.30;;;;;;5129327;28;20235;-65
2021/03/31 12:24:27;;;;;;;2.83;2.50;;;17.80;53.40;;;;;;5130347;28;20161;-64
2021/03/31 12:26:59;;;;;;;4.27;2.97;;;17.80;54.20;;;;;;5130155;28;20458;-65
2021/03/31 12:29:25;;;;;;;4.20;3.30;;;17.70;55.50;;;;;;5130184;28;20653;-65
2021/03/31 12:31:50;;;;;;;5.03;2.60;;;17.50;55.50;;;;;;5130011;28;20391;-64
2021/03/31 12:34:16;;;;;;;2.17;1.97;;;17.40;56.70;;;;;;5130072;28;20142;-65
2021/03/31 12:36:42;;;;;;;3.00;2.40;;;17.30;57.70;;;;;;5129935;27;20158;-65
2021/03/31 12:39:07;;;;;;;4.20;2.90;;;17.20;58.60;;;;;;5119195;27;20638;-65
2021/03/31 12:41:34;;;;;;;3.07;2.70;;;17.10;59.40;;;;;;5116110;28;20186;-65
2021/03/31 12:44:00;;;;;;;2.80;2.20;;;17.10;59.50;;;;;;5116428;28;20625;-65
2021/03/31 12:46:26;;;;;;;3.20;2.30;;;17.00;60.20;;;;;;5115265;28;20447;-65
2021/03/31 12:48:52;;;;;;;4.87;2.60;;;17.00;59.70;;;;;;5116487;28;20664;-65
2021/03/31 12:51:32;;;;;;;4.80;2.27;;;16.90;59.90;;;;;;5112401;27;20206;-65
2021/03/31 12:54:07;;;;;;;2.47;2.17;;;16.90;56.40;;;;;;5096727;28;20381;-65
2021/03/31 12:56:33;;;;;;;2.90;2.53;;;16.90;58.40;;;;;;5095768;28;20401;-65
2021/03/31 12:58:59;;;;;;;5.33;3.43;;;16.90;59.60;;;;;;5095640;28;20404;-65
2021/03/31 13:01:26;;;;;;;4.20;2.53;;;16.90;55.30;;;;;;5096102;28;20155;-65
2021/03/31 13:03:52;;;;;;;3.00;2.53;;;17.00;56.40;;;;;;5095845;28;20170;-65
2021/03/31 13:06:19;;;;;;;3.67;3.10;;;17.10;54.70;;;;;;5095696;28;20389;-65
2021/03/31 13:08:48;;;;;;;3.47;2.57;;;17.10;57.40;;;;;;5095490;28;20377;-65
2021/03/31 13:11:14;;;;;;;5.40;3.00;;;17.10;58.40;;;;;;5094957;28;20456;-65
2021/03/31 13:27:35;;;;;;;3.30;2.30;;;17.00;59.30;;;;;;5090562;28;20503;-64
2021/03/31 13:32:54;;;;;;;6.57;3.10;;;16.80;58.10;;;;;;5069362;28;20463;-65
2021/03/31 13:35:23;;;;;;;3.27;2.30;;;16.80;56.00;;;;;;5070623;28;20391;-70
2021/03/31 13:37:54;;;;;;;3.40;3.00;;;16.80;57.10;;;;;;5070249;28;20749;-65
2021/03/31 13:40:20;;;;;;;3.63;2.63;;;16.70;57.90;;;;;;5070332;28;20882;-65
2021/03/31 13:42:46;;;;;;;5.43;2.60;;;16.70;55.50;;;;;;5070603;28;20421;-65
2021/03/31 13:45:11;;;;;;;3.43;3.13;;;16.70;56.90;;;;;;5070556;28;20855;-65
2021/03/31 13:47:57;;;;;;;4.60;3.17;;;16.70;56.30;;;;;;5070483;28;20625;-65
2021/03/31 13:50:23;;;;;;;2.27;2.07;;;16.70;55.80;;;;;;5070090;28;20159;-65
2021/03/31 13:52:51;;;;;;;3.33;2.23;;;16.70;57.60;;;;;;5070014;28;20439;-65
2021/03/31 13:55:20;;;;;;;2.10;1.83;;;16.70;56.50;;;;;;5070140;28;20385;-65
2021/03/31 13:57:48;;;;;;;3.47;2.07;;;16.70;56.70;;;;;;5069022;28;20390;-65
2021/03/31 14:00:15;;;;;;;2.23;2.03;;;16.70;58.60;;;;;;5070155;28;20386;-65
2021/03/31 14:02:41;;;;;;;1.93;1.77;;;16.60;59.30;;;;;;5075772;28;20417;-65
2021/03/31 14:05:08;;;;;;;4.07;2.53;;;16.50;58.10;;;;;;5089957;28;20733;-65
2021/03/31 14:07:34;;;;;;;3.20;2.20;;;16.50;59.50;;;;;;5089772;28;20400;-65
2021/03/31 14:09:59;;;;;;;2.33;2.13;;;16.50;56.40;;;;;;5090010;28;20385;-65
2021/03/31 14:12:25;;;;;;;1.80;1.70;;;16.50;58.00;;;;;;5090254;28;20186;-65
2021/03/31 14:14:51;;;;;;;2.33;2.13;;;16.50;59.60;;;;;;5088547;28;20236;-66
2021/03/31 14:17:18;;;;;;;3.70;2.17;;;16.40;60.00;;;;;;5089692;28;20152;-66
2021/03/31 14:19:47;;;;;;;4.83;2.70;;;16.60;54.20;;;;;;5088590;28;20182;-66
2021/03/31 14:22:13;;;;;;;3.70;2.57;;;16.80;54.50;;;;;;5089815;28;20396;-65
2021/03/31 14:24:38;;;;;;;3.80;1.90;;;16.90;56.50;;;;;;5089836;28;20402;-66